sensor_id;sensor_type;location;lat;lon;timestamp;pressure;altitude;pressure_sealevel;temperature;humidity
70833;BME280;71099;59.528;17.886;2023-09-19T00:01:06;99912.91;;;15.62;96.54
70833;BME280;71099;59.528;17.886;2023-09-19T00:03:37;99912.91;;;15.62;96.67
70833;BME280;71099;59.528;17.886;2023-09-19T00:06:03;99907.69;;;15.62;97.26
70833;BME280;71099;59.528;17.886;2023-09-19T00:08:30;99907.06;;;15.60;97.62
70833;BME280;71099;59.528;17.886;2023-09-19T00:10:56;99913.31;;;15.66;97.71
70833;BME280;71099;59.528;17.886;2023-09-19T00:13:21;99896.09;;;15.65;97.92
70833;BME280;71099;59.528;17.886;2023-09-19T00:15:48;99898.69;;;15.65;98.16
70833;BME280;71099;59.528;17.886;2023-09-19T00:18:14;99887.72;;;15.70;97.94
70833;BME280;71099;59.528;17.886;2023-09-19T00:20:41;99875.50;;;15.70;98.15
70833;BME280;71099;59.528;17.886;2023-09-19T00:23:07;99882.91;;;15.67;98.24
70833;BME280;71099;59.528;17.886;2023-09-19T00:25:36;99879.50;;;15.73;98.25
70833;BME280;71099;59.528;17.886;2023-09-19T00:28:03;99862.69;;;15.75;98.06
70833;BME280;71099;59.528;17.886;2023-09-19T00:30:29;99862.31;;;15.78;97.87
70833;BME280;71099;59.528;17.886;2023-09-19T00:32:55;99853.91;;;15.76;97.89
70833;BME280;71099;59.528;17.886;2023-09-19T00:35:21;99859.13;;;15.83;97.87
70833;BME280;71099;59.528;17.886;2023-09-19T00:37:50;99853.91;;;15.83;97.54
70833;BME280;71099;59.528;17.886;2023-09-19T00:40:16;99844.13;;;15.85;97.48
70833;BME280;71099;59.528;17.886;2023-09-19T00:42:45;99840.72;;;15.84;97.48
70833;BME280;71099;59.528;17.886;2023-09-19T00:45:13;99834.91;;;15.82;97.56
70833;BME280;71099;59.528;17.886;2023-09-19T00:47:41;99825.28;;;15.83;97.69
70833;BME280;71099;59.528;17.886;2023-09-19T00:50:08;99816.91;;;15.81;98.04
70833;BME280;71099;59.528;17.886;2023-09-19T00:52:37;99826.91;;;15.84;98.11
70833;BME280;71099;59.528;17.886;2023-09-19T00:55:10;99822.69;;;15.83;98.45
70833;BME280;71099;59.528;17.886;2023-09-19T00:57:37;99817.31;;;15.91;98.40
70833;BME280;71099;59.528;17.886;2023-09-19T01:00:08;99808.88;;;15.89;98.51
70833;BME280;71099;59.528;17.886;2023-09-19T01:02:37;99808.50;;;15.92;98.62
70833;BME280;71099;59.528;17.886;2023-09-19T01:05:03;99797.28;;;15.85;99.04
70833;BME280;71099;59.528;17.886;2023-09-19T01:07:30;99794.28;;;15.94;99.01
70833;BME280;71099;59.528;17.886;2023-09-19T01:09:57;99795.50;;;15.98;98.67
70833;BME280;71099;59.528;17.886;2023-09-19T01:12:41;99789.66;;;15.96;98.73
70833;BME280;71099;59.528;17.886;2023-09-19T01:18:02;99772.88;;;15.99;98.98
70833;BME280;71099;59.528;17.886;2023-09-19T01:20:57;99764.84;;;16.00;99.33
70833;BME280;71099;59.528;17.886;2023-09-19T01:23:39;99752.84;;;15.99;99.54
70833;BME280;71099;59.528;17.886;2023-09-19T01:29:01;99748.84;;;15.97;100.00
70833;BME280;71099;59.528;17.886;2023-09-19T01:31:33;99744.84;;;16.01;100.00
70833;BME280;71099;59.528;17.886;2023-09-19T01:34:03;99736.44;;;15.99;100.00
70833;BME280;71099;59.528;17.886;2023-09-19T01:36:37;99728.81;;;16.04;100.00
70833;BME280;71099;59.528;17.886;2023-09-19T01:39:08;99723.59;;;16.04;100.00
70833;BME280;71099;59.528;17.886;2023-09-19T01:44:12;99718.81;;;16.01;100.00
70833;BME280;71099;59.528;17.886;2023-09-19T01:46:41;99715.00;;;16.03;100.00
70833;BME280;71099;59.528;17.886;2023-09-19T01:49:25;99711.63;;;16.03;100.00
70833;BME280;71099;59.528;17.886;2023-09-19T01:52:14;99708.78;;;16.04;100.00
70833;BME280;71099;59.528;17.886;2023-09-19T01:54:49;99703.78;;;16.09;100.00
70833;BME280;71099;59.528;17.886;2023-09-19T01:57:22;99697.78;;;16.09;100.00
70833;BME280;71099;59.528;17.886;2023-09-19T02:00:07;99696.16;;;16.08;100.00
70833;BME280;71099;59.528;17.886;2023-09-19T02:02:36;99686.38;;;16.10;100.00
70833;BME280;71099;59.528;17.886;2023-09-19T02:05:04;99678.75;;;16.15;100.00
70833;BME280;71099;59.528;17.886;2023-09-19T02:07:29;99672.34;;;16.18;100.00
70833;BME280;71099;59.528;17.886;2023-09-19T02:09:59;99662.13;;;16.16;100.00
70833;BME280;71099;59.528;17.886;2023-09-19T02:12:31;99649.09;;;16.16;100.00
70833;BME280;71099;59.528;17.886;2023-09-19T02:14:58;99645.09;;;16.20;100.00
70833;BME280;71099;59.528;17.886;2023-09-19T02:17:24;99634.28;;;16.17;100.00
70833;BME280;71099;59.528;17.886;2023-09-19T02:19:52;99631.47;;;16.18;100.00
70833;BME280;71099;59.528;17.886;2023-09-19T02:22:18;99627.44;;;16.22;100.00
70833;BME280;71099;59.528;17.886;2023-09-19T02:24:43;99617.03;;;16.22;100.00
70833;BME280;71099;59.528;17.886;2023-09-19T02:27:08;99610.03;;;16.23;100.00
70833;BME280;71099;59.528;17.886;2023-09-19T02:29:34;99608.22;;;16.23;100.00
70833;BME280;71099;59.528;17.886;2023-09-19T02:32:00;99600.22;;;16.25;100.00
70833;BME280;71099;59.528;17.886;2023-09-19T02:34:28;99592.19;;;16.26;100.00
70833;BME280;71099;59.528;17.886;2023-09-19T02:36:53;99590.78;;;16.30;100.00
70833;BME280;71099;59.528;17.886;2023-09-19T02:39:20;99564.31;;;16.33;100.00
70833;BME280;71099;59.528;17.886;2023-09-19T02:41:45;99554.50;;;16.35;100.00
70833;BME280;71099;59.528;17.886;2023-09-19T02:44:11;99568.94;;;16.31;100.00
70833;BME280;71099;59.528;17.886;2023-09-19T02:46:37;99553.34;;;16.25;100.00
70833;BME280;71099;59.528;17.886;2023-09-19T02:49:03;99551.38;;;16.20;100.00
70833;BME280;71099;59.528;17.886;2023-09-19T02:51:32;99551.94;;;16.22;100.00
70833;BME280;71099;59.528;17.886;2023-09-19T02:53:59;99543.13;;;16.23;100.00
70833;BME280;71099;59.528;17.886;2023-09-19T02:56:24;99540.53;;;16.23;100.00
70833;BME280;71099;59.528;17.886;2023-09-19T02:58:50;99528.13;;;16.25;100.00
70833;BME280;71099;59.528;17.886;2023-09-19T03:01:16;99522.50;;;16.22;100.00
70833;BME280;71099;59.528;17.886;2023-09-19T03:03:44;99516.50;;;16.28;100.00
70833;BME280;71099;59.528;17.886;2023-09-19T03:06:10;99504.47;;;16.27;100.00
70833;BME280;71099;59.528;17.886;2023-09-19T03:08:36;99496.47;;;16.28;100.00
70833;BME280;71099;59.528;17.886;2023-09-19T03:11:04;99491.84;;;16.30;100.00
70833;BME280;71099;59.528;17.886;2023-09-19T03:13:31;99484.03;;;16.30;100.00
70833;BME280;71099;59.528;17.886;2023-09-19T03:15:57;99471.63;;;16.26;100.00
70833;BME280;71099;59.528;17.886;2023-09-19T03:18:26;99470.19;;;16.30;100.00
70833;BME280;71099;59.528;17.886;2023-09-19T03:20:55;99457.97;;;16.30;100.00
70833;BME280;71099;59.528;17.886;2023-09-19T03:23:21;99461.19;;;16.32;100.00
70833;BME280;71099;59.528;17.886;2023-09-19T03:25:47;99454.94;;;16.33;100.00
70833;BME280;71099;59.528;17.886;2023-09-19T03:28:13;99435.53;;;16.29;100.00
70833;BME280;71099;59.528;17.886;2023-09-19T06:14:24;99180.09;;;16.92;100.00
70833;BME280;71099;59.528;17.886;2023-09-19T06:16:50;99192.25;;;16.98;100.00
70833;BME280;71099;59.528;17.886;2023-09-19T06:31:42;99195.22;;;17.43;100.00
70833;BME280;71099;59.528;17.886;2023-09-19T06:34:09;99182.63;;;17.40;100.00
70833;BME280;71099;59.528;17.886;2023-09-19T06:36:35;99181.59;;;17.29;100.00
70833;BME280;71099;59.528;17.886;2023-09-19T06:39:00;99178.44;;;17.27;100.00
70833;BME280;71099;59.528;17.886;2023-09-19T06:41:26;99178.63;;;17.26;100.00
70833;BME280;71099;59.528;17.886;2023-09-19T06:43:51;99176.13;;;17.19;100.00
70833;BME280;71099;59.528;17.886;2023-09-19T06:46:19;99178.16;;;17.17;100.00
70833;BME280;71099;59.528;17.886;2023-09-19T06:48:45;99173.97;;;17.16;100.00
70833;BME280;71099;59.528;17.886;2023-09-19T06:51:12;99173.38;;;17.14;100.00
70833;BME280;71099;59.528;17.886;2023-09-19T06:53:41;99167.97;;;17.16;100.00
70833;BME280;71099;59.528;17.886;2023-09-19T06:56:06;99167.72;;;17.17;100.00
70833;BME280;71099;59.528;17.886;2023-09-19T06:58:32;99159.91;;;17.17;100.00
70833;BME280;71099;59.528;17.886;2023-09-19T07:00:57;99150.41;;;17.23;100.00
70833;BME280;71099;59.528;17.886;2023-09-19T07:03:22;99152.44;;;17.21;100.00
70833;BME280;71099;59.528;17.886;2023-09-19T07:05:51;99140.78;;;17.23;100.00
70833;BME280;71099;59.528;17.886;2023-09-19T07:08:18;99142.94;;;17.26;100.00
70833;BME280;71099;59.528;17.886;2023-09-19T07:10:45;99141.56;;;17.24;100.00
70833;BME280;71099;59.528;17.886;2023-09-19T07:13:14;99145.53;;;17.26;100.00
70833;BME280;71099;59.528;17.886;2023-09-19T07:15:42;99146.34;;;17.27;100.00
70833;BME280;71099;59.528;17.886;2023-09-19T07:18:12;99134.19;;;17.32;100.00
70833;BME280;71099;59.528;17.886;2023-09-19T07:20:39;99140.09;;;17.28;100.00
70833;BME280;71099;59.528;17.886;2023-09-19T07:25:44;99122.75;;;17.33;100.00
70833;BME280;71099;59.528;17.886;2023-09-19T07:28:09;99122.09;;;17.38;100.00
70833;BME280;71099;59.528;17.886;2023-09-19T07:30:38;99118.13;;;17.35;100.00
70833;BME280;71099;59.528;17.886;2023-09-19T07:33:05;99114.94;;;17.33;100.00
70833;BME280;71099;59.528;17.886;2023-09-19T07:35:30;99118.13;;;17.35;100.00
70833;BME280;71099;59.528;17.886;2023-09-19T07:37:56;99102.81;;;17.39;100.00
70833;BME280;71099;59.528;17.886;2023-09-19T07:40:23;99103.84;;;17.38;100.00
70833;BME280;71099;59.528;17.886;2023-09-19T07:42:57;99097.59;;;17.39;100.00
70833;BME280;71099;59.528;17.886;2023-09-19T07:45:30;99099.19;;;17.40;100.00
70833;BME280;71099;59.528;17.886;2023-09-19T07:47:56;99104.28;;;17.46;100.00
70833;BME280;71099;59.528;17.886;2023-09-19T07:50:21;99094.31;;;17.43;100.00
70833;BME280;71099;59.528;17.886;2023-09-19T07:52:48;99086.59;;;17.48;100.00
70833;BME280;71099;59.528;17.886;2023-09-19T07:55:16;99086.41;;;17.50;100.00
70833;BME280;71099;59.528;17.886;2023-09-19T07:57:42;99082.88;;;17.56;100.00
70833;BME280;71099;59.528;17.886;2023-09-19T08:00:09;99080.16;;;17.63;100.00
70833;BME280;71099;59.528;17.886;2023-09-19T08:02:39;99079.97;;;17.64;100.00
70833;BME280;71099;59.528;17.886;2023-09-19T08:05:06;99082.78;;;17.63;100.00
70833;BME280;71099;59.528;17.886;2023-09-19T08:07:34;99075.63;;;17.70;100.00
70833;BME280;71099;59.528;17.886;2023-09-19T08:10:01;99078.69;;;17.67;100.00
70833;BME280;71099;59.528;17.886;2023-09-19T08:12:27;99078.22;;;17.70;100.00
70833;BME280;71099;59.528;17.886;2023-09-19T08:14:52;99071.09;;;17.77;100.00
70833;BME280;71099;59.528;17.886;2023-09-19T08:17:17;99075.97;;;17.73;100.00
70833;BME280;71099;59.528;17.886;2023-09-19T08:19:45;99069.28;;;17.77;100.00
70833;BME280;71099;59.528;17.886;2023-09-19T08:22:11;99064.50;;;17.74;100.00
70833;BME280;71099;59.528;17.886;2023-09-19T08:24:37;99063.25;;;17.77;100.00
70833;BME280;71099;59.528;17.886;2023-09-19T08:27:03;99065.66;;;17.78;100.00
70833;BME280;71099;59.528;17.886;2023-09-19T08:29:30;99068.81;;;17.80;100.00
70833;BME280;71099;59.528;17.886;2023-09-19T08:31:59;99063.91;;;17.84;100.00
70833;BME280;71099;59.528;17.886;2023-09-19T08:34:24;99074.25;;;17.90;99.50
70833;BME280;71099;59.528;17.886;2023-09-19T08:36:51;99075.84;;;17.91;99.08
70833;BME280;71099;59.528;17.886;2023-09-19T08:39:18;99075.16;;;17.84;98.61
70833;BME280;71099;59.528;17.886;2023-09-19T08:41:44;99073.47;;;17.90;98.85
70833;BME280;71099;59.528;17.886;2023-09-19T08:44:10;99073.56;;;17.95;98.32
70833;BME280;71099;59.528;17.886;2023-09-19T08:46:37;99068.59;;;17.93;97.69
70833;BME280;71099;59.528;17.886;2023-09-19T08:49:15;99060.84;;;17.98;97.75
70833;BME280;71099;59.528;17.886;2023-09-19T08:51:54;99045.50;;;18.02;97.31
70833;BME280;71099;59.528;17.886;2023-09-19T08:54:25;99046.75;;;17.99;96.81
70833;BME280;71099;59.528;17.886;2023-09-19T08:56:53;99058.56;;;18.02;97.39
70833;BME280;71099;59.528;17.886;2023-09-19T08:59:21;99047.22;;;18.08;97.12
70833;BME280;71099;59.528;17.886;2023-09-19T09:01:49;99046.97;;;18.10;96.48
70833;BME280;71099;59.528;17.886;2023-09-19T09:04:19;99032.56;;;18.07;95.31
70833;BME280;71099;59.528;17.886;2023-09-19T09:06:45;99035.81;;;18.14;95.39
70833;BME280;71099;59.528;17.886;2023-09-19T09:09:15;99036.28;;;18.23;94.90
70833;BME280;71099;59.528;17.886;2023-09-19T09:11:40;99030.91;;;18.29;94.67
70833;BME280;71099;59.528;17.886;2023-09-19T09:14:06;99031.22;;;18.33;94.12
70833;BME280;71099;59.528;17.886;2023-09-19T09:16:35;99024.25;;;18.38;93.83
70833;BME280;71099;59.528;17.886;2023-09-19T09:19:00;99010.13;;;18.34;93.00
70833;BME280;71099;59.528;17.886;2023-09-19T09:21:27;99014.94;;;18.42;92.63
70833;BME280;71099;59.528;17.886;2023-09-19T09:23:54;99015.03;;;18.47;91.88
70833;BME280;71099;59.528;17.886;2023-09-19T09:26:41;99026.03;;;18.49;91.37
70833;BME280;71099;59.528;17.886;2023-09-19T09:29:10;99013.44;;;18.46;91.10
70833;BME280;71099;59.528;17.886;2023-09-19T09:31:36;99008.00;;;18.48;91.33
70833;BME280;71099;59.528;17.886;2023-09-19T09:34:03;99006.63;;;18.45;91.17
70833;BME280;71099;59.528;17.886;2023-09-19T09:36:39;99012.19;;;18.49;91.28
70833;BME280;71099;59.528;17.886;2023-09-19T09:39:06;99009.34;;;18.50;91.02
70833;BME280;71099;59.528;17.886;2023-09-19T09:41:43;98995.72;;;18.60;90.79
70833;BME280;71099;59.528;17.886;2023-09-19T09:44:16;99000.78;;;18.67;90.96
70833;BME280;71099;59.528;17.886;2023-09-19T09:46:44;98988.88;;;18.76;90.08
70833;BME280;71099;59.528;17.886;2023-09-19T09:49:26;99002.84;;;18.81;89.55
70833;BME280;71099;59.528;17.886;2023-09-19T09:52:00;99004.59;;;18.92;89.04
70833;BME280;71099;59.528;17.886;2023-09-19T09:54:27;99007.03;;;18.99;88.64
70833;BME280;71099;59.528;17.886;2023-09-19T09:57:05;98999.50;;;19.02;88.59
70833;BME280;71099;59.528;17.886;2023-09-19T09:59:50;98997.31;;;19.11;87.54
70833;BME280;71099;59.528;17.886;2023-09-19T10:02:20;98996.25;;;19.12;86.38
70833;BME280;71099;59.528;17.886;2023-09-19T10:04:51;98996.81;;;19.14;85.84
70833;BME280;71099;59.528;17.886;2023-09-19T10:07:35;98998.88;;;19.12;85.32
70833;BME280;71099;59.528;17.886;2023-09-19T10:10:04;98989.81;;;19.20;85.61
70833;BME280;71099;59.528;17.886;2023-09-19T10:12:47;98986.34;;;19.14;84.08
70833;BME280;71099;59.528;17.886;2023-09-19T10:15:16;98983.47;;;19.16;84.45
70833;BME280;71099;59.528;17.886;2023-09-19T10:17:43;98979.66;;;19.23;83.67
70833;BME280;71099;59.528;17.886;2023-09-19T10:20:16;98981.34;;;19.29;83.99
70833;BME280;71099;59.528;17.886;2023-09-19T10:23:05;98976.66;;;19.31;84.00
70833;BME280;71099;59.528;17.886;2023-09-19T10:25:36;98975.38;;;19.34;82.82
70833;BME280;71099;59.528;17.886;2023-09-19T10:28:02;98970.63;;;19.47;82.47
70833;BME280;71099;59.528;17.886;2023-09-19T10:30:31;98970.97;;;19.56;81.59
70833;BME280;71099;59.528;17.886;2023-09-19T10:33:03;98968.69;;;19.60;80.67
70833;BME280;71099;59.528;17.886;2023-09-19T10:35:32;98949.31;;;19.61;79.04
70833;BME280;71099;59.528;17.886;2023-09-19T10:38:00;98958.81;;;19.67;78.46
70833;BME280;71099;59.528;17.886;2023-09-19T10:40:29;98954.25;;;19.79;79.13
70833;BME280;71099;59.528;17.886;2023-09-19T10:43:05;98958.75;;;19.83;76.86
70833;BME280;71099;59.528;17.886;2023-09-19T10:45:32;98945.19;;;19.86;75.81
70833;BME280;71099;59.528;17.886;2023-09-19T10:48:02;98953.44;;;20.00;75.79
70833;BME280;71099;59.528;17.886;2023-09-19T10:50:35;98950.28;;;19.98;73.25
70833;BME280;71099;59.528;17.886;2023-09-19T10:53:04;98953.44;;;20.00;74.26
70833;BME280;71099;59.528;17.886;2023-09-19T10:55:33;98957.41;;;20.03;74.64
70833;BME280;71099;59.528;17.886;2023-09-19T10:58:01;98960.81;;;20.03;73.20
70833;BME280;71099;59.528;17.886;2023-09-19T11:00:29;98957.41;;;20.03;72.63
70833;BME280;71099;59.528;17.886;2023-09-19T11:05:41;98955.47;;;19.93;72.21
70833;BME280;71099;59.528;17.886;2023-09-19T11:08:07;98957.47;;;19.86;71.60
70833;BME280;71099;59.528;17.886;2023-09-19T11:10:46;98963.63;;;19.75;71.14
70833;BME280;71099;59.528;17.886;2023-09-19T11:13:30;98964.91;;;19.72;71.87
70833;BME280;71099;59.528;17.886;2023-09-19T11:26:43;98981.59;;;19.44;69.04
70833;BME280;71099;59.528;17.886;2023-09-19T11:29:40;98976.13;;;19.29;66.00
70833;BME280;71099;59.528;17.886;2023-09-19T11:32:06;98987.16;;;19.15;62.88
70833;BME280;71099;59.528;17.886;2023-09-19T11:34:42;98983.19;;;18.79;62.28
70833;BME280;71099;59.528;17.886;2023-09-19T11:39:37;98973.69;;;18.73;62.34
70833;BME280;71099;59.528;17.886;2023-09-19T11:45:06;98981.13;;;18.64;62.37
70833;BME280;71099;59.528;17.886;2023-09-19T11:47:32;98986.50;;;18.58;63.04
70833;BME280;71099;59.528;17.886;2023-09-19T11:50:01;98970.03;;;18.57;63.47
70833;BME280;71099;59.528;17.886;2023-09-19T11:52:28;98966.88;;;18.55;62.70
70833;BME280;71099;59.528;17.886;2023-09-19T11:55:00;98975.84;;;18.47;62.90
70833;BME280;71099;59.528;17.886;2023-09-19T11:57:28;98969.03;;;18.46;62.64
70833;BME280;71099;59.528;17.886;2023-09-19T11:59:55;98969.09;;;18.63;62.81
70833;BME280;71099;59.528;17.886;2023-09-19T12:02:35;98960.22;;;18.81;62.56
70833;BME280;71099;59.528;17.886;2023-09-19T12:05:04;98953.16;;;18.98;62.30
70833;BME280;71099;59.528;17.886;2023-09-19T12:07:29;98961.47;;;19.12;60.99
70833;BME280;71099;59.528;17.886;2023-09-19T12:10:05;98956.09;;;19.18;59.99
70833;BME280;71099;59.528;17.886;2023-09-19T12:12:31;98968.28;;;19.29;60.93
70833;BME280;71099;59.528;17.886;2023-09-19T12:14:59;98965.97;;;19.16;60.59
70833;BME280;71099;59.528;17.886;2023-09-19T12:17:40;98975.44;;;18.84;60.59
70833;BME280;71099;59.528;17.886;2023-09-19T12:20:08;98968.78;;;18.76;61.32
70833;BME280;71099;59.528;17.886;2023-09-19T12:22:45;98973.53;;;18.63;60.33
70833;BME280;71099;59.528;17.886;2023-09-19T12:25:14;98989.69;;;18.60;58.83
70833;BME280;71099;59.528;17.886;2023-09-19T12:27:46;98985.09;;;18.67;59.20
70833;BME280;71099;59.528;17.886;2023-09-19T12:30:27;98981.22;;;18.69;59.41
70833;BME280;71099;59.528;17.886;2023-09-19T12:32:53;98970.84;;;18.74;58.48
70833;BME280;71099;59.528;17.886;2023-09-19T12:35:33;98969.91;;;18.64;58.37
70833;BME280;71099;59.528;17.886;2023-09-19T12:38:03;98969.34;;;18.78;58.96
70833;BME280;71099;59.528;17.886;2023-09-19T12:40:31;98962.69;;;18.87;57.83
70833;BME280;71099;59.528;17.886;2023-09-19T12:42:58;98964.50;;;18.87;58.24
70833;BME280;71099;59.528;17.886;2023-09-19T12:45:25;98976.69;;;18.98;58.82
70833;BME280;71099;59.528;17.886;2023-09-19T12:48:22;98965.28;;;19.04;58.98
70833;BME280;71099;59.528;17.886;2023-09-19T12:51:09;98970.84;;;18.91;59.14
70833;BME280;71099;59.528;17.886;2023-09-19T12:53:45;98977.41;;;18.77;58.46
70833;BME280;71099;59.528;17.886;2023-09-19T12:56:15;98972.56;;;18.69;58.62
70833;BME280;71099;59.528;17.886;2023-09-19T12:58:54;98974.53;;;18.62;57.41
70833;BME280;71099;59.528;17.886;2023-09-19T13:01:20;98966.88;;;18.72;58.75
70833;BME280;71099;59.528;17.886;2023-09-19T13:04:17;98960.47;;;18.63;58.13
70833;BME280;71099;59.528;17.886;2023-09-19T13:06:51;98961.19;;;18.46;58.28
70833;BME280;71099;59.528;17.886;2023-09-19T13:09:19;98957.47;;;18.42;58.62
70833;BME280;71099;59.528;17.886;2023-09-19T13:11:45;98964.47;;;18.53;59.47
70833;BME280;71099;59.528;17.886;2023-09-19T13:14:25;98969.34;;;18.33;55.14
70833;BME280;71099;59.528;17.886;2023-09-19T13:17:01;98951.91;;;18.39;56.68
70833;BME280;71099;59.528;17.886;2023-09-19T13:19:37;98970.41;;;18.21;53.80
70833;BME280;71099;59.528;17.886;2023-09-19T13:22:04;98962.56;;;18.21;55.63
70833;BME280;71099;59.528;17.886;2023-09-19T13:24:31;98957.59;;;18.19;55.21
70833;BME280;71099;59.528;17.886;2023-09-19T13:27:00;98971.31;;;18.26;54.40
70833;BME280;71099;59.528;17.886;2023-09-19T13:29:25;98970.25;;;18.27;54.47
70833;BME280;71099;59.528;17.886;2023-09-19T13:31:52;98973.16;;;18.14;53.92
70833;BME280;71099;59.528;17.886;2023-09-19T13:34:20;98979.50;;;18.18;53.37
70833;BME280;71099;59.528;17.886;2023-09-19T13:36:46;98993.84;;;18.16;53.09
70833;BME280;71099;59.528;17.886;2023-09-19T13:39:18;98997.94;;;18.12;52.88
70833;BME280;71099;59.528;17.886;2023-09-19T13:41:44;98993.03;;;18.15;53.63
70833;BME280;71099;59.528;17.886;2023-09-19T13:44:11;99003.56;;;18.20;54.60
70833;BME280;71099;59.528;17.886;2023-09-19T13:46:37;99001.03;;;17.97;51.91
70833;BME280;71099;59.528;17.886;2023-09-19T13:49:03;98998.50;;;18.02;51.76
70833;BME280;71099;59.528;17.886;2023-09-19T13:51:30;99008.44;;;17.88;49.99
70833;BME280;71099;59.528;17.886;2023-09-19T13:53:56;99005.59;;;17.90;49.69
70833;BME280;71099;59.528;17.886;2023-09-19T13:56:22;98998.13;;;17.82;49.53
70833;BME280;71099;59.528;17.886;2023-09-19T13:58:48;99011.06;;;17.77;50.84
70833;BME280;71099;59.528;17.886;2023-09-19T14:01:13;99015.72;;;17.75;50.72
70833;BME280;71099;59.528;17.886;2023-09-19T14:03:39;99012.66;;;17.54;50.08
70833;BME280;71099;59.528;17.886;2023-09-19T14:06:05;99017.09;;;17.42;51.47
70833;BME280;71099;59.528;17.886;2023-09-19T14:08:31;99026.50;;;17.43;50.41
70833;BME280;71099;59.528;17.886;2023-09-19T14:10:58;99018.44;;;17.33;51.17
70833;BME280;71099;59.528;17.886;2023-09-19T14:13:23;99008.81;;;17.22;51.37
70833;BME280;71099;59.528;17.886;2023-09-19T14:15:50;99003.47;;;17.17;48.85
70833;BME280;71099;59.528;17.886;2023-09-19T14:18:16;99005.53;;;17.15;48.58
70833;BME280;71099;59.528;17.886;2023-09-19T14:20:41;99017.22;;;17.24;47.75
70833;BME280;71099;59.528;17.886;2023-09-19T14:23:07;99012.34;;;17.28;49.58
70833;BME280;71099;59.528;17.886;2023-09-19T14:25:35;99022.44;;;17.24;48.39
70833;BME280;71099;59.528;17.886;2023-09-19T14:28:02;99012.53;;;17.15;47.25
70833;BME280;71099;59.528;17.886;2023-09-19T14:30:28;99019.69;;;17.19;49.30
70833;BME280;71099;59.528;17.886;2023-09-19T14:32:53;99018.09;;;17.18;49.03
70833;BME280;71099;59.528;17.886;2023-09-19T14:35:19;99029.22;;;17.02;49.55
70833;BME280;71099;59.528;17.886;2023-09-19T14:37:44;99030.56;;;17.04;49.93
70833;BME280;71099;59.528;17.886;2023-09-19T14:40:11;99033.34;;;16.91;49.26
70833;BME280;71099;59.528;17.886;2023-09-19T14:42:39;99031.13;;;16.95;49.52
70833;BME280;71099;59.528;17.886;2023-09-19T14:45:05;99040.06;;;16.99;50.59
70833;BME280;71099;59.528;17.886;2023-09-19T14:47:32;99030.41;;;16.88;49.70
70833;BME280;71099;59.528;17.886;2023-09-19T14:50:02;99045.78;;;16.78;50.34
70833;BME280;71099;59.528;17.886;2023-09-19T14:52:34;99034.91;;;16.69;51.22
70833;BME280;71099;59.528;17.886;2023-09-19T14:55:01;99045.75;;;16.66;50.98
70833;BME280;71099;59.528;17.886;2023-09-19T14:57:27;99056.09;;;16.73;51.15
70833;BME280;71099;59.528;17.886;2023-09-19T14:59:52;99062.31;;;16.72;51.09
70833;BME280;71099;59.528;17.886;2023-09-19T15:02:18;99056.78;;;16.50;51.22
70833;BME280;71099;59.528;17.886;2023-09-19T15:04:43;99069.75;;;16.56;52.16
70833;BME280;71099;59.528;17.886;2023-09-19T15:07:13;99073.56;;;16.54;51.85
70833;BME280;71099;59.528;17.886;2023-09-19T15:09:41;99088.13;;;16.62;52.76
70833;BME280;71099;59.528;17.886;2023-09-19T15:12:06;99100.53;;;16.41;53.31
70833;BME280;71099;59.528;17.886;2023-09-19T15:14:32;99113.22;;;16.20;56.91
70833;BME280;71099;59.528;17.886;2023-09-19T15:16:57;99119.50;;;15.94;59.78
70833;BME280;71099;59.528;17.886;2023-09-19T15:19:22;99123.09;;;15.50;61.04
70833;BME280;71099;59.528;17.886;2023-09-19T15:21:48;99121.50;;;14.86;62.35
70833;BME280;71099;59.528;17.886;2023-09-19T15:24:14;99123.19;;;14.74;63.81
70833;BME280;71099;59.528;17.886;2023-09-19T15:26:40;99134.28;;;14.43;65.82
70833;BME280;71099;59.528;17.886;2023-09-19T15:29:06;99120.91;;;14.33;67.66
70833;BME280;71099;59.528;17.886;2023-09-19T15:31:32;99117.72;;;14.31;70.11
70833;BME280;71099;59.528;17.886;2023-09-19T15:33:57;99128.50;;;14.28;68.98
70833;BME280;71099;59.528;17.886;2023-09-19T15:36:23;99119.38;;;14.12;70.21
70833;BME280;71099;59.528;17.886;2023-09-19T15:39:02;99124.16;;;14.15;70.17
70833;BME280;71099;59.528;17.886;2023-09-19T15:41:36;99125.34;;;14.13;69.75
70833;BME280;71099;59.528;17.886;2023-09-19T15:44:10;99104.59;;;14.13;69.15
70833;BME280;71099;59.528;17.886;2023-09-19T15:46:36;99101.41;;;14.11;70.11
70833;BME280;71099;59.528;17.886;2023-09-19T15:49:02;99108.59;;;14.09;70.19
70833;BME280;71099;59.528;17.886;2023-09-19T15:51:28;99110.03;;;13.98;69.28
70833;BME280;71099;59.528;17.886;2023-09-19T15:53:56;99114.22;;;13.93;70.25
70833;BME280;71099;59.528;17.886;2023-09-19T15:56:23;99125.00;;;13.83;68.66
70833;BME280;71099;59.528;17.886;2023-09-19T15:58:50;99111.06;;;13.78;69.75
70833;BME280;71099;59.528;17.886;2023-09-19T16:01:16;99107.09;;;13.62;69.33
70833;BME280;71099;59.528;17.886;2023-09-19T16:03:46;99108.69;;;13.69;70.29
70833;BME280;71099;59.528;17.886;2023-09-19T16:06:14;99110.88;;;13.73;70.08
70833;BME280;71099;59.528;17.886;2023-09-19T16:08:41;99111.47;;;13.75;70.47
70833;BME280;71099;59.528;17.886;2023-09-19T16:11:07;99117.84;;;13.79;70.72
70833;BME280;71099;59.528;17.886;2023-09-19T16:13:34;99106.69;;;13.72;70.39
70833;BME280;71099;59.528;17.886;2023-09-19T16:16:00;99112.28;;;13.55;70.58
70833;BME280;71099;59.528;17.886;2023-09-19T16:18:25;99104.50;;;13.49;71.11
70833;BME280;71099;59.528;17.886;2023-09-19T16:20:50;99111.50;;;13.42;70.67
70833;BME280;71099;59.528;17.886;2023-09-19T16:23:16;99111.50;;;13.48;71.28